sensor_id;sensor_type;location;lat;lon;timestamp;P1;durP1;ratioP1;P2;durP2;ratioP2
22289;SDS011;11313;50.116;8.424;2023-11-18T00:00:16;3.63;;;2.00;;
22289;SDS011;11313;50.116;8.424;2023-11-18T00:02:42;2.45;;;2.10;;
22289;SDS011;11313;50.116;8.424;2023-11-18T00:05:08;1.73;;;1.63;;
22289;SDS011;11313;50.116;8.424;2023-11-18T00:07:34;2.63;;;1.92;;
22289;SDS011;11313;50.116;8.424;2023-11-18T00:10:00;2.50;;;2.10;;
22289;SDS011;11313;50.116;8.424;2023-11-18T00:12:25;2.08;;;1.83;;
22289;SDS011;11313;50.116;8.424;2023-11-18T00:14:51;2.30;;;2.10;;
22289;SDS011;11313;50.116;8.424;2023-11-18T00:17:16;2.00;;;1.80;;
22289;SDS011;11313;50.116;8.424;2023-11-18T00:19:42;2.38;;;1.90;;
22289;SDS011;11313;50.116;8.424;2023-11-18T00:22:10;1.70;;;1.60;;
22289;SDS011;11313;50.116;8.424;2023-11-18T00:24:36;1.90;;;1.60;;
22289;SDS011;11313;50.116;8.424;2023-11-18T00:27:03;2.22;;;2.03;;
22289;SDS011;11313;50.116;8.424;2023-11-18T00:29:34;2.55;;;2.03;;
22289;SDS011;11313;50.116;8.424;2023-11-18T00:32:00;2.25;;;2.00;;
22289;SDS011;11313;50.116;8.424;2023-11-18T00:34:27;2.25;;;1.80;;
22289;SDS011;11313;50.116;8.424;2023-11-18T00:36:54;2.08;;;1.88;;
22289;SDS011;11313;50.116;8.424;2023-11-18T00:39:21;2.00;;;1.80;;
22289;SDS011;11313;50.116;8.424;2023-11-18T00:41:46;2.08;;;1.67;;
22289;SDS011;11313;50.116;8.424;2023-11-18T00:44:12;2.10;;;1.90;;
22289;SDS011;11313;50.116;8.424;2023-11-18T00:46:38;2.15;;;1.92;;
22289;SDS011;11313;50.116;8.424;2023-11-18T00:49:04;2.00;;;1.70;;
22289;SDS011;11313;50.116;8.424;2023-11-18T00:51:30;2.05;;;1.85;;
22289;SDS011;11313;50.116;8.424;2023-11-18T00:53:56;2.05;;;1.80;;
22289;SDS011;11313;50.116;8.424;2023-11-18T00:56:21;1.88;;;1.67;;
22289;SDS011;11313;50.116;8.424;2023-11-18T00:58:47;2.15;;;1.70;;
22289;SDS011;11313;50.116;8.424;2023-11-18T01:01:13;2.13;;;1.92;;
22289;SDS011;11313;50.116;8.424;2023-11-18T01:03:42;1.77;;;1.65;;
22289;SDS011;11313;50.116;8.424;2023-11-18T01:06:09;1.98;;;1.70;;
22289;SDS011;11313;50.116;8.424;2023-11-18T01:08:34;1.90;;;1.80;;
22289;SDS011;11313;50.116;8.424;2023-11-18T01:10:59;1.83;;;1.73;;
22289;SDS011;11313;50.116;8.424;2023-11-18T01:13:25;1.95;;;1.75;;
22289;SDS011;11313;50.116;8.424;2023-11-18T01:15:51;1.77;;;1.58;;
22289;SDS011;11313;50.116;8.424;2023-11-18T01:18:17;2.15;;;1.95;;
22289;SDS011;11313;50.116;8.424;2023-11-18T01:20:42;1.98;;;1.77;;
22289;SDS011;11313;50.116;8.424;2023-11-18T01:23:08;1.63;;;1.52;;
22289;SDS011;11313;50.116;8.424;2023-11-18T01:25:34;1.98;;;1.85;;
22289;SDS011;11313;50.116;8.424;2023-11-18T01:27:59;1.80;;;1.70;;
22289;SDS011;11313;50.116;8.424;2023-11-18T01:30:25;1.58;;;1.48;;
22289;SDS011;11313;50.116;8.424;2023-11-18T01:32:51;1.80;;;1.65;;
22289;SDS011;11313;50.116;8.424;2023-11-18T01:35:17;1.77;;;1.67;;
22289;SDS011;11313;50.116;8.424;2023-11-18T01:37:43;1.77;;;1.60;;
22289;SDS011;11313;50.116;8.424;2023-11-18T01:40:09;1.95;;;1.75;;
22289;SDS011;11313;50.116;8.424;2023-11-18T01:42:38;1.98;;;1.77;;
22289;SDS011;11313;50.116;8.424;2023-11-18T01:45:06;1.80;;;1.70;;
22289;SDS011;11313;50.116;8.424;2023-11-18T01:50:02;1.70;;;1.60;;
22289;SDS011;11313;50.116;8.424;2023-11-18T01:52:31;2.25;;;1.70;;
22289;SDS011;11313;50.116;8.424;2023-11-18T01:54:57;1.73;;;1.60;;
22289;SDS011;11313;50.116;8.424;2023-11-18T01:57:24;2.08;;;1.88;;
22289;SDS011;11313;50.116;8.424;2023-11-18T01:59:51;1.70;;;1.50;;
22289;SDS011;11313;50.116;8.424;2023-11-18T02:02:18;1.50;;;1.40;;
22289;SDS011;11313;50.116;8.424;2023-11-18T02:04:45;1.65;;;1.55;;
22289;SDS011;11313;50.116;8.424;2023-11-18T02:07:11;1.95;;;1.80;;
22289;SDS011;11313;50.116;8.424;2023-11-18T02:09:40;1.50;;;1.40;;
22289;SDS011;11313;50.116;8.424;2023-11-18T02:14:46;1.65;;;1.55;;
22289;SDS011;11313;50.116;8.424;2023-11-18T02:17:14;1.60;;;1.50;;
22289;SDS011;11313;50.116;8.424;2023-11-18T02:19:43;2.00;;;1.63;;
22289;SDS011;11313;50.116;8.424;2023-11-18T02:22:10;1.70;;;1.35;;
22289;SDS011;11313;50.116;8.424;2023-11-18T02:24:36;1.70;;;1.60;;
22289;SDS011;11313;50.116;8.424;2023-11-18T02:27:02;1.60;;;1.50;;
22289;SDS011;11313;50.116;8.424;2023-11-18T02:29:37;1.80;;;1.70;;
22289;SDS011;11313;50.116;8.424;2023-11-18T02:32:09;1.63;;;1.50;;
22289;SDS011;11313;50.116;8.424;2023-11-18T02:34:40;1.63;;;1.50;;
22289;SDS011;11313;50.116;8.424;2023-11-18T02:37:13;1.95;;;1.50;;
22289;SDS011;11313;50.116;8.424;2023-11-18T02:39:39;1.67;;;1.45;;
22289;SDS011;11313;50.116;8.424;2023-11-18T02:42:07;1.95;;;1.60;;
22289;SDS011;11313;50.116;8.424;2023-11-18T02:44:35;1.67;;;1.52;;
22289;SDS011;11313;50.116;8.424;2023-11-18T02:47:02;1.60;;;1.50;;
22289;SDS011;11313;50.116;8.424;2023-11-18T02:49:30;1.50;;;1.38;;
22289;SDS011;11313;50.116;8.424;2023-11-18T02:51:55;1.50;;;1.40;;
22289;SDS011;11313;50.116;8.424;2023-11-18T02:54:21;1.50;;;1.40;;
22289;SDS011;11313;50.116;8.424;2023-11-18T02:56:47;1.50;;;1.40;;
22289;SDS011;11313;50.116;8.424;2023-11-18T02:59:13;1.67;;;1.58;;
22289;SDS011;11313;50.116;8.424;2023-11-18T03:01:39;1.40;;;1.30;;
22289;SDS011;11313;50.116;8.424;2023-11-18T03:04:04;1.42;;;1.23;;
22289;SDS011;11313;50.116;8.424;2023-11-18T03:06:31;1.40;;;1.30;;
22289;SDS011;11313;50.116;8.424;2023-11-18T03:09:00;1.40;;;1.30;;
22289;SDS011;11313;50.116;8.424;2023-11-18T03:11:26;1.50;;;1.40;;
22289;SDS011;11313;50.116;8.424;2023-11-18T03:13:55;1.52;;;1.42;;
22289;SDS011;11313;50.116;8.424;2023-11-18T03:16:21;1.42;;;1.33;;
22289;SDS011;11313;50.116;8.424;2023-11-18T03:18:47;1.50;;;1.40;;
22289;SDS011;11313;50.116;8.424;2023-11-18T03:21:13;1.60;;;1.40;;
22289;SDS011;11313;50.116;8.424;2023-11-18T03:23:39;1.63;;;1.25;;
22289;SDS011;11313;50.116;8.424;2023-11-18T03:26:05;1.60;;;1.50;;
22289;SDS011;11313;50.116;8.424;2023-11-18T03:28:35;1.50;;;1.40;;
22289;SDS011;11313;50.116;8.424;2023-11-18T03:31:01;1.30;;;1.20;;
22289;SDS011;11313;50.116;8.424;2023-11-18T03:33:28;1.80;;;1.70;;
22289;SDS011;11313;50.116;8.424;2023-11-18T03:35:54;1.40;;;1.30;;
22289;SDS011;11313;50.116;8.424;2023-11-18T03:38:20;1.50;;;1.30;;
22289;SDS011;11313;50.116;8.424;2023-11-18T03:40:46;1.73;;;1.40;;
22289;SDS011;11313;50.116;8.424;2023-11-18T03:43:12;1.70;;;1.60;;
22289;SDS011;11313;50.116;8.424;2023-11-18T03:45:39;1.40;;;1.30;;
22289;SDS011;11313;50.116;8.424;2023-11-18T03:48:05;1.40;;;1.30;;
22289;SDS011;11313;50.116;8.424;2023-11-18T03:50:31;1.65;;;1.50;;
22289;SDS011;11313;50.116;8.424;2023-11-18T03:52:57;1.83;;;1.40;;
22289;SDS011;11313;50.116;8.424;2023-11-18T03:55:23;1.40;;;1.30;;
22289;SDS011;11313;50.116;8.424;2023-11-18T03:57:50;1.95;;;1.60;;
22289;SDS011;11313;50.116;8.424;2023-11-18T04:00:16;1.35;;;1.25;;
22289;SDS011;11313;50.116;8.424;2023-11-18T04:02:42;1.40;;;1.30;;
22289;SDS011;11313;50.116;8.424;2023-11-18T04:05:10;1.35;;;1.20;;
22289;SDS011;11313;50.116;8.424;2023-11-18T04:07:36;1.30;;;1.20;;
22289;SDS011;11313;50.116;8.424;2023-11-18T04:10:02;1.42;;;1.30;;
22289;SDS011;11313;50.116;8.424;2023-11-18T04:12:30;1.50;;;1.40;;
22289;SDS011;11313;50.116;8.424;2023-11-18T04:14:55;1.40;;;1.30;;
22289;SDS011;11313;50.116;8.424;2023-11-18T04:17:21;1.33;;;1.23;;
22289;SDS011;11313;50.116;8.424;2023-11-18T04:19:46;1.40;;;1.30;;
22289;SDS011;11313;50.116;8.424;2023-11-18T04:22:12;1.65;;;1.40;;
22289;SDS011;11313;50.116;8.424;2023-11-18T04:24:38;1.40;;;1.30;;
22289;SDS011;11313;50.116;8.424;2023-11-18T04:27:03;1.30;;;1.20;;
22289;SDS011;11313;50.116;8.424;2023-11-18T04:29:29;1.50;;;1.40;;
22289;SDS011;11313;50.116;8.424;2023-11-18T04:31:55;1.30;;;1.20;;
22289;SDS011;11313;50.116;8.424;2023-11-18T04:34:20;1.40;;;1.30;;
22289;SDS011;11313;50.116;8.424;2023-11-18T04:36:46;1.50;;;1.40;;
22289;SDS011;11313;50.116;8.424;2023-11-18T04:39:11;1.30;;;1.20;;
22289;SDS011;11313;50.116;8.424;2023-11-18T04:41:37;1.80;;;1.10;;
22289;SDS011;11313;50.116;8.424;2023-11-18T04:44:03;1.27;;;1.17;;
22289;SDS011;11313;50.116;8.424;2023-11-18T04:46:28;1.20;;;1.10;;
22289;SDS011;11313;50.116;8.424;2023-11-18T04:48:54;1.27;;;1.17;;
22289;SDS011;11313;50.116;8.424;2023-11-18T04:51:20;1.33;;;1.23;;
22289;SDS011;11313;50.116;8.424;2023-11-18T04:53:47;1.48;;;1.30;;
22289;SDS011;11313;50.116;8.424;2023-11-18T04:56:13;1.20;;;1.10;;
22289;SDS011;11313;50.116;8.424;2023-11-18T04:58:41;1.30;;;1.17;;
22289;SDS011;11313;50.116;8.424;2023-11-18T05:01:07;1.20;;;1.10;;
22289;SDS011;11313;50.116;8.424;2023-11-18T05:03:33;2.10;;;1.50;;
22289;SDS011;11313;50.116;8.424;2023-11-18T05:05:59;1.02;;;1.02;;
22289;SDS011;11313;50.116;8.424;2023-11-18T05:08:25;1.58;;;1.23;;
22289;SDS011;11313;50.116;8.424;2023-11-18T05:10:51;1.50;;;1.40;;
22289;SDS011;11313;50.116;8.424;2023-11-18T05:13:16;1.30;;;1.20;;
22289;SDS011;11313;50.116;8.424;2023-11-18T05:15:43;1.30;;;1.20;;
22289;SDS011;11313;50.116;8.424;2023-11-18T05:18:10;1.08;;;1.00;;
22289;SDS011;11313;50.116;8.424;2023-11-18T05:20:42;1.40;;;1.30;;
22289;SDS011;11313;50.116;8.424;2023-11-18T05:23:09;1.23;;;1.13;;
22289;SDS011;11313;50.116;8.424;2023-11-18T05:25:35;1.20;;;1.10;;
22289;SDS011;11313;50.116;8.424;2023-11-18T05:28:01;1.30;;;1.20;;
22289;SDS011;11313;50.116;8.424;2023-11-18T05:30:28;1.00;;;1.00;;
22289;SDS011;11313;50.116;8.424;2023-11-18T05:32:55;1.33;;;1.23;;
22289;SDS011;11313;50.116;8.424;2023-11-18T05:35:23;1.40;;;1.30;;
22289;SDS011;11313;50.116;8.424;2023-11-18T05:37:53;1.02;;;1.02;;
22289;SDS011;11313;50.116;8.424;2023-11-18T05:40:19;1.30;;;1.20;;
22289;SDS011;11313;50.116;8.424;2023-11-18T05:42:45;1.35;;;1.20;;
22289;SDS011;11313;50.116;8.424;2023-11-18T05:45:13;1.10;;;1.00;;
22289;SDS011;11313;50.116;8.424;2023-11-18T05:47:52;1.15;;;1.08;;
22289;SDS011;11313;50.116;8.424;2023-11-18T05:50:22;1.20;;;1.10;;
22289;SDS011;11313;50.116;8.424;2023-11-18T05:52:49;1.10;;;1.00;;
22289;SDS011;11313;50.116;8.424;2023-11-18T05:55:15;1.15;;;1.05;;
22289;SDS011;11313;50.116;8.424;2023-11-18T05:57:41;1.27;;;1.17;;
22289;SDS011;11313;50.116;8.424;2023-11-18T06:00:10;2.40;;;1.00;;
22289;SDS011;11313;50.116;8.424;2023-11-18T06:05:06;1.85;;;1.20;;
22289;SDS011;11313;50.116;8.424;2023-11-18T06:07:32;1.20;;;1.10;;
22289;SDS011;11313;50.116;8.424;2023-11-18T06:09:59;1.60;;;1.10;;
22289;SDS011;11313;50.116;8.424;2023-11-18T06:12:24;1.50;;;1.13;;
22289;SDS011;11313;50.116;8.424;2023-11-18T06:14:51;1.80;;;1.10;;
22289;SDS011;11313;50.116;8.424;2023-11-18T06:17:17;2.67;;;1.30;;
22289;SDS011;11313;50.116;8.424;2023-11-18T06:19:44;2.17;;;1.10;;
22289;SDS011;11313;50.116;8.424;2023-11-18T06:22:09;1.90;;;1.15;;
22289;SDS011;11313;50.116;8.424;2023-11-18T06:24:35;1.85;;;0.93;;
22289;SDS011;11313;50.116;8.424;2023-11-18T06:27:01;2.08;;;1.10;;
22289;SDS011;11313;50.116;8.424;2023-11-18T06:29:26;2.50;;;1.17;;
22289;SDS011;11313;50.116;8.424;2023-11-18T06:31:54;1.50;;;1.20;;
22289;SDS011;11313;50.116;8.424;2023-11-18T06:34:19;1.20;;;1.00;;
22289;SDS011;11313;50.116;8.424;2023-11-18T06:36:45;2.22;;;1.23;;
22289;SDS011;11313;50.116;8.424;2023-11-18T06:39:11;1.30;;;1.20;;
22289;SDS011;11313;50.116;8.424;2023-11-18T06:41:38;1.63;;;1.17;;
22289;SDS011;11313;50.116;8.424;2023-11-18T06:44:13;1.58;;;1.10;;
22289;SDS011;11313;50.116;8.424;2023-11-18T06:46:42;1.35;;;1.25;;
22289;SDS011;11313;50.116;8.424;2023-11-18T06:49:09;2.35;;;1.20;;
22289;SDS011;11313;50.116;8.424;2023-11-18T06:51:40;1.73;;;1.17;;
22289;SDS011;11313;50.116;8.424;2023-11-18T06:54:06;1.30;;;1.20;;
22289;SDS011;11313;50.116;8.424;2023-11-18T06:56:35;1.38;;;1.20;;
22289;SDS011;11313;50.116;8.424;2023-11-18T06:59:03;1.05;;;1.00;;
22289;SDS011;11313;50.116;8.424;2023-11-18T07:01:33;1.97;;;1.30;;
22289;SDS011;11313;50.116;8.424;2023-11-18T07:03:59;0.95;;;0.88;;
22289;SDS011;11313;50.116;8.424;2023-11-18T07:06:24;1.90;;;1.30;;
22289;SDS011;11313;50.116;8.424;2023-11-18T07:08:52;1.23;;;1.02;;
22289;SDS011;11313;50.116;8.424;2023-11-18T07:11:18;1.27;;;1.17;;
22289;SDS011;11313;50.116;8.424;2023-11-18T07:13:48;1.42;;;1.10;;
22289;SDS011;11313;50.116;8.424;2023-11-18T07:16:14;1.25;;;1.05;;
22289;SDS011;11313;50.116;8.424;2023-11-18T07:18:40;2.35;;;1.20;;
22289;SDS011;11313;50.116;8.424;2023-11-18T07:21:09;1.23;;;1.13;;
22289;SDS011;11313;50.116;8.424;2023-11-18T07:23:35;1.30;;;1.20;;
22289;SDS011;11313;50.116;8.424;2023-11-18T07:26:16;2.75;;;1.10;;
22289;SDS011;11313;50.116;8.424;2023-11-18T07:28:42;1.20;;;1.00;;
22289;SDS011;11313;50.116;8.424;2023-11-18T07:31:08;2.05;;;1.00;;
22289;SDS011;11313;50.116;8.424;2023-11-18T07:33:34;1.55;;;1.20;;
22289;SDS011;11313;50.116;8.424;2023-11-18T07:35:59;2.05;;;1.38;;
22289;SDS011;11313;50.116;8.424;2023-11-18T07:38:25;1.35;;;1.17;;
22289;SDS011;11313;50.116;8.424;2023-11-18T07:40:52;1.33;;;1.23;;
22289;SDS011;11313;50.116;8.424;2023-11-18T07:43:21;8.05;;;1.73;;
22289;SDS011;11313;50.116;8.424;2023-11-18T07:45:47;5.80;;;2.38;;
22289;SDS011;11313;50.116;8.424;2023-11-18T07:50:45;7.63;;;2.50;;
22289;SDS011;11313;50.116;8.424;2023-11-18T16:10:50;3.75;;;2.60;;
22289;SDS011;11313;50.116;8.424;2023-11-18T16:17:06;7.13;;;3.08;;
22289;SDS011;11313;50.116;8.424;2023-11-18T16:24:01;3.30;;;2.65;;
22289;SDS011;11313;50.116;8.424;2023-11-18T16:26:36;2.95;;;2.30;;
22289;SDS011;11313;50.116;8.424;2023-11-18T16:29:02;3.00;;;2.65;;
22289;SDS011;11313;50.116;8.424;2023-11-18T16:31:33;3.95;;;2.60;;
22289;SDS011;11313;50.116;8.424;2023-11-18T16:33:59;5.53;;;2.65;;
22289;SDS011;11313;50.116;8.424;2023-11-18T17:00:07;3.75;;;2.28;;
22289;SDS011;11313;50.116;8.424;2023-11-18T17:13:19;3.70;;;2.10;;
22289;SDS011;11313;50.116;8.424;2023-11-18T17:19:26;4.47;;;2.42;;
22289;SDS011;11313;50.116;8.424;2023-11-18T17:22:23;3.17;;;2.10;;
22289;SDS011;11313;50.116;8.424;2023-11-18T17:25:17;4.43;;;2.42;;
22289;SDS011;11313;50.116;8.424;2023-11-18T17:28:19;5.90;;;2.65;;
22289;SDS011;11313;50.116;8.424;2023-11-18T17:31:01;6.05;;;3.08;;
22289;SDS011;11313;50.116;8.424;2023-11-18T17:33:39;5.65;;;2.88;;
22289;SDS011;11313;50.116;8.424;2023-11-18T17:40:01;5.32;;;3.40;;
22289;SDS011;11313;50.116;8.424;2023-11-18T17:47:46;5.93;;;3.60;;
22289;SDS011;11313;50.116;8.424;2023-11-18T18:08:23;11.50;;;5.30;;
22289;SDS011;11313;50.116;8.424;2023-11-18T18:10:49;9.40;;;5.40;;
22289;SDS011;11313;50.116;8.424;2023-11-18T18:13:14;10.88;;;5.60;;
22289;SDS011;11313;50.116;8.424;2023-11-18T18:15:40;10.40;;;5.60;;
22289;SDS011;11313;50.116;8.424;2023-11-18T18:18:06;9.45;;;5.50;;
22289;SDS011;11313;50.116;8.424;2023-11-18T18:20:32;9.20;;;5.45;;
22289;SDS011;11313;50.116;8.424;2023-11-18T18:22:58;14.02;;;5.25;;
22289;SDS011;11313;50.116;8.424;2023-11-18T18:25:24;11.82;;;5.05;;
22289;SDS011;11313;50.116;8.424;2023-11-18T18:27:50;9.75;;;5.55;;
22289;SDS011;11313;50.116;8.424;2023-11-18T18:30:15;8.98;;;5.05;;
22289;SDS011;11313;50.116;8.424;2023-11-18T18:32:44;11.38;;;5.72;;
22289;SDS011;11313;50.116;8.424;2023-11-18T18:35:11;12.00;;;5.00;;
22289;SDS011;11313;50.116;8.424;2023-11-18T18:37:37;8.23;;;4.35;;
22289;SDS011;11313;50.116;8.424;2023-11-18T18:40:02;11.63;;;5.28;;
22289;SDS011;11313;50.116;8.424;2023-11-18T18:42:29;8.63;;;4.45;;
22289;SDS011;11313;50.116;8.424;2023-11-18T18:44:57;8.60;;;4.50;;
22289;SDS011;11313;50.116;8.424;2023-11-18T18:47:22;9.38;;;4.75;;
22289;SDS011;11313;50.116;8.424;2023-11-18T18:49:48;12.05;;;4.90;;
22289;SDS011;11313;50.116;8.424;2023-11-18T18:52:13;10.13;;;4.72;;
22289;SDS011;11313;50.116;8.424;2023-11-18T18:54:39;13.57;;;4.68;;
22289;SDS011;11313;50.116;8.424;2023-11-18T18:57:05;7.65;;;4.53;;
22289;SDS011;11313;50.116;8.424;2023-11-18T18:59:32;10.23;;;4.80;;
22289;SDS011;11313;50.116;8.424;2023-11-18T19:01:58;9.75;;;3.90;;
22289;SDS011;11313;50.116;8.424;2023-11-18T19:04:23;10.27;;;4.88;;
22289;SDS011;11313;50.116;8.424;2023-11-18T19:06:49;11.23;;;4.32;;
22289;SDS011;11313;50.116;8.424;2023-11-18T19:09:15;12.15;;;4.90;;
22289;SDS011;11313;50.116;8.424;2023-11-18T19:11:43;10.52;;;4.50;;
22289;SDS011;11313;50.116;8.424;2023-11-18T19:14:10;11.13;;;4.10;;
22289;SDS011;11313;50.116;8.424;2023-11-18T19:16:36;6.70;;;4.25;;
22289;SDS011;11313;50.116;8.424;2023-11-18T19:19:01;9.55;;;5.05;;
22289;SDS011;11313;50.116;8.424;2023-11-18T19:21:26;12.55;;;4.15;;
22289;SDS011;11313;50.116;8.424;2023-11-18T19:23:55;8.07;;;4.00;;
22289;SDS011;11313;50.116;8.424;2023-11-18T19:26:21;11.15;;;4.18;;
22289;SDS011;11313;50.116;8.424;2023-11-18T19:28:48;6.57;;;4.10;;
22289;SDS011;11313;50.116;8.424;2023-11-18T19:31:14;9.18;;;3.58;;
22289;SDS011;11313;50.116;8.424;2023-11-18T19:33:40;8.90;;;4.18;;
22289;SDS011;11313;50.116;8.424;2023-11-18T19:36:06;9.75;;;3.75;;
22289;SDS011;11313;50.116;8.424;2023-11-18T19:38:35;8.57;;;3.67;;
22289;SDS011;11313;50.116;8.424;2023-11-18T19:41:01;10.25;;;4.65;;
22289;SDS011;11313;50.116;8.424;2023-11-18T19:43:27;9.10;;;3.83;;
22289;SDS011;11313;50.116;8.424;2023-11-18T19:45:53;10.32;;;4.60;;
22289;SDS011;11313;50.116;8.424;2023-11-18T19:48:19;7.40;;;3.78;;
22289;SDS011;11313;50.116;8.424;2023-11-18T19:50:45;9.65;;;3.92;;
22289;SDS011;11313;50.116;8.424;2023-11-18T19:53:13;6.43;;;3.55;;
22289;SDS011;11313;50.116;8.424;2023-11-18T19:55:39;5.90;;;3.33;;
22289;SDS011;11313;50.116;8.424;2023-11-18T19:58:04;5.70;;;3.55;;
22289;SDS011;11313;50.116;8.424;2023-11-18T20:00:30;7.22;;;3.60;;
22289;SDS011;11313;50.116;8.424;2023-11-18T20:02:55;7.25;;;3.70;;
22289;SDS011;11313;50.116;8.424;2023-11-18T20:05:21;9.43;;;3.83;;
22289;SDS011;11313;50.116;8.424;2023-11-18T20:07:47;5.70;;;3.28;;
22289;SDS011;11313;50.116;8.424;2023-11-18T20:10:13;8.25;;;3.65;;
22289;SDS011;11313;50.116;8.424;2023-11-18T20:12:38;7.35;;;3.72;;
22289;SDS011;11313;50.116;8.424;2023-11-18T20:15:05;9.07;;;3.85;;
22289;SDS011;11313;50.116;8.424;2023-11-18T20:17:32;5.80;;;3.45;;
22289;SDS011;11313;50.116;8.424;2023-11-18T20:19:58;7.30;;;3.53;;
22289;SDS011;11313;50.116;8.424;2023-11-18T20:22:30;7.47;;;3.90;;
22289;SDS011;11313;50.116;8.424;2023-11-18T20:24:55;8.45;;;3.85;;
22289;SDS011;11313;50.116;8.424;2023-11-18T20:27:22;7.55;;;3.67;;
22289;SDS011;11313;50.116;8.424;2023-11-18T20:29:48;6.95;;;3.38;;
22289;SDS011;11313;50.116;8.424;2023-11-18T20:32:13;7.93;;;3.85;;
22289;SDS011;11313;50.116;8.424;2023-11-18T20:34:39;5.45;;;2.90;;
22289;SDS011;11313;50.116;8.424;2023-11-18T20:37:04;6.68;;;3.40;;
22289;SDS011;11313;50.116;8.424;2023-11-18T20:39:30;5.88;;;3.15;;
22289;SDS011;11313;50.116;8.424;2023-11-18T20:41:58;7.47;;;3.78;;
22289;SDS011;11313;50.116;8.424;2023-11-18T20:44:24;5.50;;;3.08;;
22289;SDS011;11313;50.116;8.424;2023-11-18T20:46:49;9.65;;;3.70;;
22289;SDS011;11313;50.116;8.424;2023-11-18T20:49:15;7.85;;;3.70;;
22289;SDS011;11313;50.116;8.424;2023-11-18T20:51:42;6.38;;;3.50;;
22289;SDS011;11313;50.116;8.424;2023-11-18T20:54:08;8.68;;;3.10;;
22289;SDS011;11313;50.116;8.424;2023-11-18T20:56:33;5.80;;;3.00;;
22289;SDS011;11313;50.116;8.424;2023-11-18T20:59:00;6.68;;;3.22;;
22289;SDS011;11313;50.116;8.424;2023-11-18T21:01:26;7.15;;;3.03;;
22289;SDS011;11313;50.116;8.424;2023-11-18T21:03:52;8.13;;;3.70;;
22289;SDS011;11313;50.116;8.424;2023-11-18T21:06:17;6.68;;;3.42;;
22289;SDS011;11313;50.116;8.424;2023-11-18T22:03:09;4.50;;;2.30;;
22289;SDS011;11313;50.116;8.424;2023-11-18T22:05:47;5.05;;;2.60;;
